AUA25N LOWW-EDDH
Flight info
| Callsign | AUA25N |
|---|---|
| Flight time | 1h 13m |
| Altitude | 36000 |
| Route | LANUX DCT LALUK DCT MILGU DCT SOGMA M748 BUMIL/N0396F240 M748 RARUP RARUP3P |
| Aircraft | A320/M-SDE3FGHIRWY/LB1 |
Departure
| Time | 2026-05-04 07:39 |
|---|---|
| Airport | Vienna International Airport (LOWW) |
Arrival
| Time | 2026-05-04 08:52 |
|---|---|
| Airport | Hamburg Helmut Schmidt Airport (EDDH) |
| Time | Latitude | Longitude | Altitude | Speed | Heading |
|---|---|---|---|---|---|
| 2026-05-04 07:12 | 48.11631 | 16.56505 | 609 ft | 0 kts | 206° |
| 2026-05-04 07:30 | 48.11626 | 16.56501 | 623 ft | 4 kts | 206° |
| 2026-05-04 07:30 | 48.11582 | 16.56479 | 609 ft | 8 kts | 184° |
| 2026-05-04 07:30 | 48.11532 | 16.56563 | 617 ft | 13 kts | 115° |
| 2026-05-04 07:31 | 48.11493 | 16.56684 | 613 ft | 14 kts | 116° |
| 2026-05-04 07:31 | 48.11449 | 16.56821 | 616 ft | 15 kts | 116° |
| 2026-05-04 07:33 | 48.11595 | 16.57548 | 617 ft | 13 kts | 26° |
| 2026-05-04 07:33 | 48.11667 | 16.57531 | 618 ft | 12 kts | 342° |
| 2026-05-04 07:33 | 48.11709 | 16.57512 | 618 ft | 11 kts | 342° |
| 2026-05-04 07:34 | 48.11776 | 16.57481 | 621 ft | 9 kts | 342° |
| 2026-05-04 07:34 | 48.11835 | 16.57453 | 614 ft | 8 kts | 342° |
| 2026-05-04 07:34 | 48.11892 | 16.57430 | 617 ft | 13 kts | 348° |
| 2026-05-04 07:34 | 48.11972 | 16.57404 | 621 ft | 10 kts | 348° |
| 2026-05-04 07:35 | 48.12018 | 16.57472 | 617 ft | 14 kts | 95° |
| 2026-05-04 07:35 | 48.11999 | 16.57580 | 616 ft | 4 kts | 106° |
| 2026-05-04 07:35 | 48.11998 | 16.57581 | 615 ft | 0 kts | 105° |
| 2026-05-04 07:38 | 48.11736 | 16.57921 | 616 ft | 43 kts | 163° |
| 2026-05-04 07:38 | 48.11234 | 16.58135 | 618 ft | 106 kts | 164° |
| 2026-05-04 07:38 | 48.10345 | 16.58512 | 614 ft | 157 kts | 164° |
| 2026-05-04 07:38 | 48.09240 | 16.58978 | 1028 ft | 169 kts | 164° |
| 2026-05-04 07:39 | 48.08034 | 16.59489 | 1538 ft | 185 kts | 166° |
| 2026-05-04 07:39 | 48.06811 | 16.60010 | 2215 ft | 189 kts | 165° |
| 2026-05-04 07:39 | 48.05638 | 16.61005 | 2855 ft | 201 kts | 143° |
| 2026-05-04 07:39 | 48.04796 | 16.62737 | 3481 ft | 214 kts | 118° |
| 2026-05-04 07:40 | 48.04530 | 16.64984 | 4080 ft | 228 kts | 90° |
| 2026-05-04 07:40 | 48.04999 | 16.67276 | 4722 ft | 236 kts | 60° |
| 2026-05-04 07:40 | 48.06134 | 16.69076 | 5294 ft | 245 kts | 39° |
| 2026-05-04 07:40 | 48.07545 | 16.70718 | 5729 ft | 265 kts | 37° |
| 2026-05-04 07:41 | 48.09082 | 16.72405 | 6246 ft | 283 kts | 36° |
| 2026-05-04 07:41 | 48.10693 | 16.74149 | 6982 ft | 290 kts | 36° |
| 2026-05-04 07:41 | 48.12292 | 16.75888 | 7726 ft | 296 kts | 36° |
| 2026-05-04 07:41 | 48.14074 | 16.77618 | 8550 ft | 299 kts | 24° |
| 2026-05-04 07:42 | 48.16067 | 16.78536 | 9394 ft | 304 kts | 7° |
| 2026-05-04 07:42 | 48.18181 | 16.78527 | 10184 ft | 306 kts | 349° |
| 2026-05-04 07:42 | 48.20345 | 16.77964 | 10568 ft | 327 kts | 348° |
| 2026-05-04 07:42 | 48.22670 | 16.77339 | 10826 ft | 349 kts | 348° |
| 2026-05-04 07:43 | 48.25089 | 16.76691 | 11445 ft | 357 kts | 347° |
| 2026-05-04 07:43 | 48.27561 | 16.76033 | 12140 ft | 363 kts | 348° |
| 2026-05-04 07:43 | 48.30073 | 16.75367 | 12815 ft | 369 kts | 348° |
| 2026-05-04 07:43 | 48.32611 | 16.74685 | 13506 ft | 373 kts | 346° |
| 2026-05-04 07:44 | 48.35093 | 16.73544 | 14230 ft | 373 kts | 336° |
| 2026-05-04 07:44 | 48.37432 | 16.71827 | 14849 ft | 376 kts | 330° |
| 2026-05-04 07:44 | 48.39759 | 16.70012 | 15507 ft | 378 kts | 329° |
| 2026-05-04 07:44 | 48.41970 | 16.67869 | 16102 ft | 379 kts | 317° |
| 2026-05-04 07:45 | 48.43833 | 16.65090 | 16720 ft | 377 kts | 305° |
| 2026-05-04 07:45 | 48.45282 | 16.61819 | 17370 ft | 375 kts | 294° |
| 2026-05-04 07:45 | 48.46300 | 16.58216 | 17966 ft | 375 kts | 288° |
| 2026-05-04 07:45 | 48.47215 | 16.54514 | 18552 ft | 379 kts | 288° |
| 2026-05-04 07:46 | 48.48138 | 16.50783 | 19089 ft | 382 kts | 288° |
| 2026-05-04 07:46 | 48.49057 | 16.47066 | 19639 ft | 385 kts | 288° |
| 2026-05-04 07:46 | 48.49993 | 16.43274 | 20183 ft | 387 kts | 288° |
| 2026-05-04 07:46 | 48.50935 | 16.39454 | 20717 ft | 390 kts | 288° |
| 2026-05-04 07:47 | 48.51880 | 16.35604 | 21269 ft | 393 kts | 288° |
| 2026-05-04 07:47 | 48.52831 | 16.31719 | 21812 ft | 396 kts | 288° |
| 2026-05-04 07:47 | 48.53787 | 16.27806 | 22336 ft | 399 kts | 288° |
| 2026-05-04 07:49 | 48.63944 | 16.02487 | 25466 ft | 417 kts | 311° |
| 2026-05-04 07:49 | 48.65921 | 15.99269 | 25854 ft | 419 kts | 311° |
| 2026-05-04 07:49 | 48.67902 | 15.96030 | 26231 ft | 420 kts | 311° |
| 2026-05-04 07:50 | 48.69887 | 15.92772 | 26597 ft | 422 kts | 311° |
| 2026-05-04 07:50 | 48.71883 | 15.89494 | 26958 ft | 424 kts | 311° |
| 2026-05-04 07:50 | 48.73887 | 15.86207 | 27317 ft | 426 kts | 311° |
| 2026-05-04 07:50 | 48.75901 | 15.82903 | 27677 ft | 427 kts | 311° |
| 2026-05-04 07:51 | 48.77918 | 15.79586 | 28025 ft | 429 kts | 311° |
| 2026-05-04 07:51 | 48.79945 | 15.76248 | 28361 ft | 431 kts | 311° |
| 2026-05-04 07:51 | 48.81977 | 15.72896 | 28679 ft | 433 kts | 311° |
| 2026-05-04 07:51 | 48.84016 | 15.69526 | 28993 ft | 434 kts | 311° |
| 2026-05-04 07:52 | 48.86064 | 15.66140 | 29298 ft | 436 kts | 311° |
| 2026-05-04 07:52 | 48.88195 | 15.62847 | 29604 ft | 439 kts | 317° |
| 2026-05-04 07:52 | 48.90638 | 15.60037 | 29896 ft | 443 kts | 326° |
| 2026-05-04 07:52 | 48.93310 | 15.57685 | 30152 ft | 445 kts | 328° |
| 2026-05-04 07:53 | 48.96013 | 15.55352 | 30378 ft | 447 kts | 328° |
| 2026-05-04 07:54 | 49.14952 | 15.38844 | 32308 ft | 444 kts | 328° |
| 2026-05-04 07:55 | 49.17634 | 15.36495 | 32619 ft | 444 kts | 327° |
| 2026-05-04 07:55 | 49.20308 | 15.34149 | 32904 ft | 443 kts | 327° |
| 2026-05-04 07:55 | 49.22979 | 15.31803 | 33200 ft | 442 kts | 327° |
| 2026-05-04 07:55 | 49.25643 | 15.29462 | 33508 ft | 441 kts | 327° |
| 2026-05-04 07:56 | 49.28299 | 15.27128 | 33825 ft | 440 kts | 327° |
| 2026-05-04 07:56 | 49.30948 | 15.24792 | 34111 ft | 439 kts | 327° |
| 2026-05-04 07:56 | 49.33589 | 15.22457 | 34373 ft | 438 kts | 327° |
| 2026-05-04 07:56 | 49.36228 | 15.20125 | 34624 ft | 438 kts | 327° |
| 2026-05-04 07:57 | 49.38866 | 15.17792 | 34861 ft | 437 kts | 327° |
| 2026-05-04 07:57 | 49.41500 | 15.15459 | 35087 ft | 437 kts | 327° |
| 2026-05-04 07:57 | 49.44134 | 15.13120 | 35307 ft | 437 kts | 327° |
| 2026-05-04 07:57 | 49.46765 | 15.10781 | 35508 ft | 437 kts | 327° |
| 2026-05-04 07:58 | 49.49399 | 15.08438 | 35721 ft | 437 kts | 327° |
| 2026-05-04 07:58 | 49.52028 | 15.06097 | 35925 ft | 437 kts | 327° |
| 2026-05-04 07:58 | 49.57285 | 15.01414 | 36014 ft | 436 kts | 327° |
| 2026-05-04 07:59 | 49.62524 | 14.96720 | 36015 ft | 436 kts | 326° |
| 2026-05-04 07:59 | 49.67737 | 14.92031 | 36004 ft | 437 kts | 326° |
| 2026-05-04 08:00 | 49.72995 | 14.87311 | 36008 ft | 437 kts | 326° |
| 2026-05-04 08:02 | 49.94001 | 14.68330 | 36031 ft | 437 kts | 326° |
| 2026-05-04 08:02 | 49.99247 | 14.63560 | 36035 ft | 437 kts | 326° |
| 2026-05-04 08:03 | 50.04490 | 14.58769 | 36035 ft | 437 kts | 325° |
| 2026-05-04 08:03 | 50.09734 | 14.53959 | 36027 ft | 437 kts | 325° |
| 2026-05-04 08:04 | 50.14977 | 14.49143 | 36021 ft | 437 kts | 325° |
| 2026-05-04 08:04 | 50.20221 | 14.44319 | 36027 ft | 437 kts | 325° |
| 2026-05-04 08:05 | 50.25465 | 14.39493 | 36021 ft | 437 kts | 325° |
| 2026-05-04 08:05 | 50.30707 | 14.34650 | 36022 ft | 438 kts | 325° |
| 2026-05-04 08:06 | 50.35947 | 14.29796 | 36021 ft | 438 kts | 325° |
| 2026-05-04 08:06 | 50.41182 | 14.24922 | 36021 ft | 438 kts | 325° |
| 2026-05-04 08:08 | 50.61237 | 14.06167 | 36037 ft | 438 kts | 325° |
| 2026-05-04 08:11 | 50.84658 | 13.83701 | 36032 ft | 436 kts | 321° |
| 2026-05-04 08:11 | 50.92084 | 13.75416 | 36026 ft | 435 kts | 321° |
| 2026-05-04 08:12 | 50.97043 | 13.69903 | 36023 ft | 435 kts | 321° |
| 2026-05-04 08:12 | 51.02028 | 13.64435 | 36037 ft | 435 kts | 321° |
| 2026-05-04 08:13 | 51.07017 | 13.58979 | 36030 ft | 435 kts | 321° |
| 2026-05-04 08:13 | 51.11998 | 13.53496 | 36025 ft | 435 kts | 321° |
| 2026-05-04 08:14 | 51.16964 | 13.47995 | 36023 ft | 435 kts | 321° |
| 2026-05-04 08:16 | 51.36805 | 13.25922 | 36012 ft | 435 kts | 320° |
| 2026-05-04 08:16 | 51.41769 | 13.20363 | 36008 ft | 435 kts | 320° |
| 2026-05-04 08:17 | 51.46727 | 13.14790 | 36003 ft | 435 kts | 320° |
| 2026-05-04 08:17 | 51.51683 | 13.09204 | 36004 ft | 435 kts | 320° |
| 2026-05-04 08:19 | 51.72044 | 12.87683 | 35991 ft | 439 kts | 322° |
| 2026-05-04 08:20 | 51.77188 | 12.82371 | 35987 ft | 439 kts | 322° |
| 2026-05-04 08:20 | 51.82321 | 12.77013 | 35984 ft | 439 kts | 322° |
| 2026-05-04 08:21 | 51.87452 | 12.71650 | 36006 ft | 439 kts | 322° |
| 2026-05-04 08:21 | 51.92575 | 12.66293 | 35998 ft | 438 kts | 322° |
| 2026-05-04 08:22 | 51.97695 | 12.60930 | 36001 ft | 438 kts | 322° |
| 2026-05-04 08:24 | 52.18119 | 12.39370 | 35999 ft | 437 kts | 321° |
| 2026-05-04 08:24 | 52.23218 | 12.33943 | 35984 ft | 438 kts | 321° |
| 2026-05-04 08:25 | 52.28318 | 12.28498 | 35976 ft | 438 kts | 321° |
| 2026-05-04 08:25 | 52.33419 | 12.23047 | 35974 ft | 438 kts | 321° |
| 2026-05-04 08:27 | 52.53831 | 12.01079 | 35503 ft | 440 kts | 321° |
| 2026-05-04 08:28 | 52.56385 | 11.98308 | 35357 ft | 441 kts | 321° |
| 2026-05-04 08:28 | 52.58944 | 11.95528 | 35153 ft | 441 kts | 320° |
| 2026-05-04 08:28 | 52.61501 | 11.92744 | 34907 ft | 441 kts | 320° |
| 2026-05-04 08:28 | 52.64054 | 11.89944 | 34663 ft | 440 kts | 319° |
| 2026-05-04 08:29 | 52.66545 | 11.87022 | 34440 ft | 439 kts | 317° |
| 2026-05-04 08:29 | 52.67552 | 11.85783 | 34329 ft | 439 kts | 316° |
| 2026-05-04 08:31 | 52.75439 | 11.75544 | 31907 ft | 432 kts | 315° |
| 2026-05-04 08:33 | 52.91414 | 11.55122 | 27955 ft | 398 kts | 316° |
| 2026-05-04 08:33 | 52.93592 | 11.52329 | 27428 ft | 393 kts | 316° |
| 2026-05-04 08:35 | 53.08234 | 11.33462 | 24006 ft | 370 kts | 315° |
| 2026-05-04 08:35 | 53.10291 | 11.30808 | 23007 ft | 377 kts | 315° |
| 2026-05-04 08:35 | 53.12381 | 11.28119 | 21945 ft | 382 kts | 316° |
| 2026-05-04 08:35 | 53.14522 | 11.25523 | 21376 ft | 379 kts | 318° |
| 2026-05-04 08:37 | 53.27397 | 11.10887 | 18445 ft | 368 kts | 319° |
| 2026-05-04 08:37 | 53.29495 | 11.08445 | 17921 ft | 367 kts | 319° |
| 2026-05-04 08:37 | 53.31578 | 11.06013 | 17423 ft | 364 kts | 319° |
| 2026-05-04 08:38 | 53.33645 | 11.03600 | 16943 ft | 360 kts | 319° |
| 2026-05-04 08:38 | 53.35692 | 11.01210 | 16474 ft | 358 kts | 319° |
| 2026-05-04 08:38 | 53.37724 | 10.98834 | 16001 ft | 355 kts | 319° |
| 2026-05-04 08:40 | 53.51629 | 10.82539 | 12721 ft | 340 kts | 320° |
| 2026-05-04 08:40 | 53.53560 | 10.80272 | 12252 ft | 337 kts | 320° |
| 2026-05-04 08:40 | 53.55475 | 10.78019 | 11778 ft | 334 kts | 321° |
| 2026-05-04 08:41 | 53.57369 | 10.75785 | 11305 ft | 329 kts | 321° |
| 2026-05-04 08:41 | 53.59210 | 10.73613 | 10845 ft | 318 kts | 321° |
| 2026-05-04 08:41 | 53.60998 | 10.71497 | 10398 ft | 311 kts | 320° |
| 2026-05-04 08:41 | 53.62722 | 10.69452 | 10191 ft | 293 kts | 320° |
| 2026-05-04 08:42 | 53.64297 | 10.67414 | 9747 ft | 279 kts | 312° |
| 2026-05-04 08:42 | 53.65566 | 10.65018 | 9546 ft | 274 kts | 307° |
| 2026-05-04 08:42 | 53.66805 | 10.62592 | 9364 ft | 271 kts | 307° |
| 2026-05-04 08:42 | 53.68036 | 10.60213 | 8728 ft | 268 kts | 307° |
| 2026-05-04 08:43 | 53.69258 | 10.57856 | 8103 ft | 266 kts | 307° |
| 2026-05-04 08:43 | 53.70461 | 10.55536 | 7716 ft | 255 kts | 307° |
| 2026-05-04 08:43 | 53.71582 | 10.53380 | 7583 ft | 234 kts | 307° |
| 2026-05-04 08:43 | 53.72622 | 10.51369 | 7250 ft | 223 kts | 307° |
| 2026-05-04 08:44 | 53.73631 | 10.49399 | 6825 ft | 222 kts | 307° |
| 2026-05-04 08:44 | 53.74633 | 10.47440 | 6515 ft | 219 kts | 307° |
| 2026-05-04 08:46 | 53.80200 | 10.34023 | 4727 ft | 210 kts | 242° |
| 2026-05-04 08:46 | 53.79327 | 10.32063 | 4537 ft | 205 kts | 233° |
| 2026-05-04 08:46 | 53.78439 | 10.30244 | 4396 ft | 196 kts | 233° |
| 2026-05-04 08:46 | 53.77589 | 10.28498 | 4306 ft | 191 kts | 233° |
| 2026-05-04 08:47 | 53.76749 | 10.26773 | 4101 ft | 189 kts | 234° |
| 2026-05-04 08:47 | 53.75921 | 10.25077 | 3896 ft | 185 kts | 234° |
| 2026-05-04 08:47 | 53.75112 | 10.23423 | 3625 ft | 180 kts | 234° |
| 2026-05-04 08:47 | 53.74325 | 10.21811 | 3386 ft | 175 kts | 233° |
| 2026-05-04 08:48 | 53.73560 | 10.20246 | 3166 ft | 170 kts | 233° |
| 2026-05-04 08:48 | 53.72816 | 10.18727 | 2923 ft | 166 kts | 233° |
| 2026-05-04 08:48 | 53.72091 | 10.17246 | 2707 ft | 161 kts | 233° |
| 2026-05-04 08:48 | 53.71384 | 10.15803 | 2491 ft | 158 kts | 232° |
| 2026-05-04 08:49 | 53.70692 | 10.14391 | 2272 ft | 153 kts | 232° |
| 2026-05-04 08:50 | 53.67055 | 10.06984 | 1156 ft | 133 kts | 233° |
| 2026-05-04 08:50 | 53.66466 | 10.05787 | 974 ft | 132 kts | 234° |
| 2026-05-04 08:51 | 53.65878 | 10.04593 | 792 ft | 134 kts | 233° |
| 2026-05-04 08:51 | 53.65270 | 10.03369 | 614 ft | 136 kts | 234° |
| 2026-05-04 08:51 | 53.64668 | 10.02131 | 454 ft | 137 kts | 233° |
| 2026-05-04 08:51 | 53.64059 | 10.00887 | 234 ft | 138 kts | 235° |
| 2026-05-04 08:52 | 53.63447 | 9.99655 | 54 ft | 135 kts | 234° |
| 2026-05-04 08:52 | 53.62937 | 9.98619 | 49 ft | 91 kts | 230° |
| 2026-05-04 08:52 | 53.62652 | 9.98043 | 49 ft | 38 kts | 230° |
| 2026-05-04 08:52 | 53.62522 | 9.97796 | 47 ft | 14 kts | 207° |
| 2026-05-04 08:53 | 53.62440 | 9.97837 | 49 ft | 11 kts | 135° |
| 2026-05-04 08:54 | 53.62814 | 9.98800 | 50 ft | 21 kts | 50° |
| 2026-05-04 08:55 | 53.62914 | 9.99000 | 50 ft | 23 kts | 50° |
| 2026-05-04 08:55 | 53.63005 | 9.99185 | 50 ft | 16 kts | 50° |
| 2026-05-04 08:55 | 53.63076 | 9.99347 | 50 ft | 18 kts | 55° |
| 2026-05-04 08:55 | 53.63154 | 9.99529 | 49 ft | 20 kts | 52° |
| 2026-05-04 08:57 | 53.63245 | 10.00246 | 51 ft | 8 kts | 175° |
| 2026-05-04 09:01 | 53.63208 | 10.00365 | 51 ft | 0 kts | 88° |